Time;durP1;ratioP1;P1;durP2;ratioP2;P2;SDS_P1;SDS_P2;PMS_P1;PMS_P2;Temp;Humidity;BMP_temperature;BMP_pressure;BME280_temperature;BME280_humidity;BME280_pressure;Samples;Min_cycle;Max_cycle;Signal;HPM_P1;HPM_P2
2024/02/29 00:00:26;;;;;;;12.30;8.77;;;8.50;98.50;;;;;;5073437;28;20539;-55
2024/02/29 00:02:53;;;;;;;10.47;6.67;;;8.50;98.50;;;;;;5073382;28;20467;-54
2024/02/29 00:05:20;;;;;;;11.40;8.20;;;8.50;98.70;;;;;;5073593;28;20482;-55
2024/02/29 00:07:47;;;;;;;11.27;7.70;;;8.50;98.30;;;;;;5074045;28;20536;-54
2024/02/29 00:10:14;;;;;;;14.93;7.90;;;8.50;98.20;;;;;;5074363;28;20444;-55
2024/02/29 00:12:42;;;;;;;8.83;7.40;;;8.50;98.10;;;;;;5074286;28;20800;-55
2024/02/29 00:15:10;;;;;;;8.80;6.33;;;8.50;98.10;;;;;;5073500;28;20444;-55
2024/02/29 00:17:37;;;;;;;10.00;7.10;;;8.40;98.10;;;;;;5073466;28;20476;-55
2024/02/29 00:20:08;;;;;;;8.63;6.90;;;8.40;98.30;;;;;;5073900;28;20497;-55
2024/02/29 00:22:35;;;;;;;11.90;7.30;;;8.40;98.60;;;;;;5073498;28;20987;-55
2024/02/29 00:25:02;;;;;;;10.00;7.60;;;8.40;98.50;;;;;;5072906;28;20468;-55
2024/02/29 00:27:30;;;;;;;15.13;7.83;;;8.30;98.20;;;;;;5072938;28;20939;-55
2024/02/29 00:29:58;;;;;;;11.53;7.03;;;8.30;98.10;;;;;;5072877;28;20502;-55
2024/02/29 00:32:25;;;;;;;9.23;6.63;;;8.30;98.50;;;;;;5073049;28;20843;-54
2024/02/29 00:34:52;;;;;;;9.00;7.47;;;8.20;98.70;;;;;;5073159;28;20444;-55
2024/02/29 00:37:19;;;;;;;11.47;8.20;;;8.20;98.70;;;;;;5073081;28;20494;-55
2024/02/29 00:39:46;;;;;;;8.40;6.87;;;8.20;98.80;;;;;;5073072;28;20480;-55
2024/02/29 00:42:12;;;;;;;10.17;6.93;;;8.10;99.30;;;;;;5073583;28;20479;-54
2024/02/29 00:44:39;;;;;;;8.20;6.30;;;8.10;99.70;;;;;;5076819;28;20486;-55
2024/02/29 00:47:07;;;;;;;10.70;6.80;;;8.10;99.40;;;;;;5076616;28;20445;-55
2024/02/29 00:49:35;;;;;;;10.27;6.90;;;8.10;99.20;;;;;;5076859;28;20448;-55
2024/02/29 00:52:01;;;;;;;8.97;6.60;;;8.10;99.00;;;;;;5076737;28;20468;-55
2024/02/29 00:54:28;;;;;;;10.00;6.90;;;8.00;98.60;;;;;;5076039;28;20843;-55
2024/02/29 00:56:55;;;;;;;10.77;6.70;;;8.00;98.60;;;;;;5075922;28;20818;-55
2024/02/29 00:59:22;;;;;;;10.50;6.60;;;7.90;99.00;;;;;;5076461;28;20451;-55
2024/02/29 01:01:49;;;;;;;9.53;7.00;;;7.80;98.60;;;;;;5076443;28;20464;-54
2024/02/29 01:04:17;;;;;;;14.23;6.50;;;7.80;98.50;;;;;;5076431;28;20484;-55
2024/02/29 01:06:44;;;;;;;7.63;6.10;;;7.70;99.00;;;;;;5076345;28;20444;-55
2024/02/29 01:09:10;;;;;;;8.60;6.60;;;7.80;99.20;;;;;;5076072;28;20798;-55
2024/02/29 01:11:39;;;;;;;10.40;6.20;;;7.80;99.50;;;;;;5076186;28;20455;-55
2024/02/29 01:14:06;;;;;;;7.73;5.80;;;7.80;99.20;;;;;;5076304;28;20890;-55
2024/02/29 01:16:32;;;;;;;11.00;6.53;;;7.80;99.30;;;;;;5076292;28;20441;-54
2024/02/29 01:19:00;;;;;;;9.93;6.23;;;7.70;99.40;;;;;;5076190;28;20455;-55
2024/02/29 01:21:28;;;;;;;10.33;7.63;;;7.80;99.30;;;;;;5076262;28;20671;-55
2024/02/29 01:23:55;;;;;;;8.30;5.60;;;7.80;99.20;;;;;;5075758;28;21017;-55
2024/02/29 01:26:22;;;;;;;8.40;5.83;;;7.70;99.00;;;;;;5075824;28;20448;-55
2024/02/29 01:28:49;;;;;;;9.23;6.30;;;7.70;98.40;;;;;;5076086;28;20448;-55
2024/02/29 01:31:15;;;;;;;8.57;6.20;;;7.70;98.30;;;;;;5076123;28;20448;-55
2024/02/29 01:33:42;;;;;;;9.37;6.00;;;7.70;98.40;;;;;;5075887;28;20476;-55
2024/02/29 01:36:09;;;;;;;12.10;6.77;;;7.70;97.40;;;;;;5075932;28;20451;-55
2024/02/29 01:38:37;;;;;;;7.30;5.10;;;7.60;97.20;;;;;;5075949;28;20449;-54
2024/02/29 01:41:05;;;;;;;7.20;5.77;;;7.60;97.40;;;;;;5075837;28;20445;-55
2024/02/29 01:43:32;;;;;;;8.57;5.30;;;7.50;97.70;;;;;;5075633;28;20469;-55
2024/02/29 01:46:12;;;;;;;6.77;5.33;;;7.50;97.20;;;;;;5075583;28;20509;-55
2024/02/29 01:48:39;;;;;;;7.93;4.93;;;7.50;96.80;;;;;;5075779;28;20432;-55
2024/02/29 01:51:06;;;;;;;8.97;5.70;;;7.50;97.30;;;;;;5075301;28;20957;-55
2024/02/29 01:53:33;;;;;;;8.00;5.00;;;7.40;97.50;;;;;;5074923;28;20472;-55
2024/02/29 01:56:02;;;;;;;7.40;5.50;;;7.40;96.30;;;;;;5075014;28;20864;-55
2024/02/29 01:58:29;;;;;;;6.80;5.43;;;7.40;96.60;;;;;;5075251;28;20934;-55
2024/02/29 02:00:56;;;;;;;9.50;5.87;;;7.30;97.00;;;;;;5075612;28;20441;-55
2024/02/29 02:03:23;;;;;;;6.47;5.00;;;7.20;96.80;;;;;;5075401;28;20486;-55
2024/02/29 02:05:50;;;;;;;9.13;5.10;;;7.20;97.10;;;;;;5075261;28;20488;-55
2024/02/29 02:08:17;;;;;;;6.90;5.13;;;7.20;96.50;;;;;;5075490;28;20440;-54
2024/02/29 02:10:44;;;;;;;6.80;5.47;;;7.20;97.10;;;;;;5075313;28;20441;-55
2024/02/29 02:13:12;;;;;;;6.90;4.90;;;7.20;97.50;;;;;;5075173;28;20465;-55
2024/02/29 02:15:39;;;;;;;8.03;5.03;;;7.20;97.90;;;;;;5074851;28;20531;-55
2024/02/29 02:18:06;;;;;;;6.87;5.30;;;7.20;97.70;;;;;;5075167;28;20449;-55
2024/02/29 02:20:34;;;;;;;7.90;5.57;;;7.20;98.30;;;;;;5075393;28;20437;-55
2024/02/29 02:23:01;;;;;;;6.00;4.90;;;7.20;98.00;;;;;;5075043;28;20845;-55
2024/02/29 02:25:28;;;;;;;7.90;5.63;;;7.20;98.00;;;;;;5074831;28;20563;-54
2024/02/29 02:27:54;;;;;;;7.80;5.30;;;7.20;97.60;;;;;;5075001;28;20448;-55
2024/02/29 02:30:21;;;;;;;6.00;5.00;;;7.20;98.10;;;;;;5074502;28;20449;-55
2024/02/29 02:32:48;;;;;;;9.33;5.60;;;7.20;98.50;;;;;;5074448;28;20472;-55
2024/02/29 02:35:15;;;;;;;8.70;5.33;;;7.20;98.00;;;;;;5074649;28;20443;-55
2024/02/29 02:37:43;;;;;;;7.13;5.13;;;7.10;97.70;;;;;;5074608;28;20449;-54
2024/02/29 02:40:11;;;;;;;8.77;5.90;;;7.10;98.20;;;;;;5074386;28;20975;-55
2024/02/29 02:42:38;;;;;;;10.63;5.90;;;7.10;97.80;;;;;;5074435;28;20514;-55
2024/02/29 02:45:05;;;;;;;7.03;5.20;;;7.10;97.70;;;;;;5074069;28;20472;-55
2024/02/29 02:47:32;;;;;;;7.90;5.43;;;7.10;98.10;;;;;;5074373;28;20448;-55
2024/02/29 02:49:59;;;;;;;7.60;5.70;;;7.00;97.70;;;;;;5074181;28;20961;-55
2024/02/29 02:52:26;;;;;;;9.00;5.93;;;6.90;98.00;;;;;;5074331;28;20884;-55
2024/02/29 02:54:54;;;;;;;10.10;6.17;;;7.00;98.30;;;;;;5073923;28;20459;-55
2024/02/29 02:57:21;;;;;;;9.30;6.07;;;6.90;98.80;;;;;;5073768;28;20514;-54
2024/02/29 02:59:48;;;;;;;9.60;6.20;;;6.90;98.60;;;;;;5074046;28;20445;-55
2024/02/29 03:02:15;;;;;;;9.70;7.00;;;6.90;98.40;;;;;;5074003;28;20465;-55
2024/02/29 03:04:42;;;;;;;11.80;5.90;;;6.90;98.90;;;;;;5074023;28;20480;-55
2024/02/29 03:07:08;;;;;;;10.53;5.97;;;6.90;99.30;;;;;;5074056;28;20495;-56
2024/02/29 03:09:35;;;;;;;9.43;6.93;;;6.90;99.10;;;;;;5073891;28;20821;-55
2024/02/29 03:12:06;;;;;;;9.20;6.40;;;6.90;98.00;;;;;;5073983;28;20460;-54
2024/02/29 03:14:33;;;;;;;10.20;6.57;;;6.90;98.60;;;;;;5074006;28;20424;-55
2024/02/29 03:17:00;;;;;;;10.50;6.93;;;6.90;98.70;;;;;;5073932;28;20447;-55
2024/02/29 03:19:26;;;;;;;12.90;7.87;;;6.80;98.50;;;;;;5073633;28;20999;-55
2024/02/29 03:21:53;;;;;;;10.07;6.97;;;6.70;98.90;;;;;;5073752;28;20837;-55
2024/02/29 03:24:20;;;;;;;10.40;7.37;;;6.70;98.90;;;;;;5074276;28;20957;-55
2024/02/29 03:26:47;;;;;;;12.43;7.73;;;6.70;98.30;;;;;;5074284;28;20444;-55
2024/02/29 03:29:15;;;;;;;11.20;7.30;;;6.70;99.20;;;;;;5073987;28;20451;-55
2024/02/29 03:31:44;;;;;;;11.40;7.53;;;6.70;98.30;;;;;;5073583;28;20453;-54
2024/02/29 03:34:11;;;;;;;11.40;7.83;;;6.70;98.90;;;;;;5073682;28;20447;-55
2024/02/29 03:36:38;;;;;;;9.43;6.80;;;6.70;98.50;;;;;;5073660;28;20440;-55
2024/02/29 03:39:05;;;;;;;11.43;6.90;;;6.70;99.00;;;;;;5073309;28;20449;-55
2024/02/29 03:41:32;;;;;;;10.13;7.17;;;6.70;99.00;;;;;;5073512;28;20833;-54
2024/02/29 03:43:59;;;;;;;13.20;8.03;;;6.70;99.10;;;;;;5073436;28;20448;-55
2024/02/29 03:46:27;;;;;;;13.63;7.73;;;6.70;99.10;;;;;;5073442;28;20500;-55
2024/02/29 03:48:54;;;;;;;14.07;7.90;;;6.70;99.10;;;;;;5073461;28;20518;-55
2024/02/29 03:51:20;;;;;;;11.50;7.73;;;6.70;98.90;;;;;;5073150;28;20459;-55
2024/02/29 03:53:47;;;;;;;11.93;7.67;;;6.70;99.60;;;;;;5073085;28;20499;-55
2024/02/29 03:56:14;;;;;;;12.70;7.50;;;6.80;99.50;;;;;;5073360;28;20445;-55
2024/02/29 03:58:41;;;;;;;9.83;7.63;;;6.80;99.80;;;;;;5073365;28;20537;-54
2024/02/29 04:01:10;;;;;;;10.47;7.10;;;6.80;99.20;;;;;;5073356;28;20527;-55
2024/02/29 04:03:38;;;;;;;12.40;8.67;;;6.80;99.10;;;;;;5073053;28;20491;-55
2024/02/29 04:06:06;;;;;;;14.00;7.50;;;6.90;99.10;;;;;;5073222;28;20499;-54
2024/02/29 04:08:33;;;;;;;13.20;9.03;;;6.90;99.20;;;;;;5073036;28;20449;-54
2024/02/29 04:11:00;;;;;;;13.03;8.10;;;6.90;99.10;;;;;;5073217;28;20449;-55
2024/02/29 04:13:27;;;;;;;13.10;8.20;;;6.90;99.10;;;;;;5073209;28;20492;-55
2024/02/29 04:15:53;;;;;;;13.17;8.30;;;6.90;99.30;;;;;;5073245;28;20441;-55
2024/02/29 04:18:20;;;;;;;11.60;7.97;;;6.90;99.00;;;;;;5078012;28;20448;-55
2024/02/29 04:20:48;;;;;;;12.80;8.87;;;7.00;98.90;;;;;;5079863;28;20821;-55
2024/02/29 04:23:15;;;;;;;14.60;9.00;;;7.00;98.80;;;;;;5079842;28;20463;-54
2024/02/29 04:25:44;;;;;;;15.00;9.43;;;7.10;98.70;;;;;;5079610;28;20484;-54
2024/02/29 04:28:14;;;;;;;13.13;9.43;;;7.10;98.70;;;;;;5079290;28;20852;-55
2024/02/29 04:30:42;;;;;;;10.67;7.63;;;7.10;98.70;;;;;;5079660;28;20444;-55
2024/02/29 04:33:08;;;;;;;10.63;7.87;;;7.10;98.70;;;;;;5079625;28;20464;-55
2024/02/29 04:35:35;;;;;;;14.70;9.13;;;7.10;98.70;;;;;;5079678;28;20470;-55
2024/02/29 04:38:03;;;;;;;12.17;7.60;;;7.10;98.70;;;;;;5079511;28;20441;-54
2024/02/29 04:40:30;;;;;;;13.30;8.60;;;7.10;98.70;;;;;;5079643;28;20444;-55
2024/02/29 04:42:57;;;;;;;16.83;9.40;;;7.10;98.70;;;;;;5079500;28;20495;-55
2024/02/29 04:45:24;;;;;;;12.97;8.70;;;7.10;98.80;;;;;;5079422;28;20480;-55
2024/02/29 04:47:52;;;;;;;17.17;9.80;;;7.10;98.80;;;;;;5079513;28;20448;-55
2024/02/29 04:50:19;;;;;;;16.50;9.13;;;7.10;98.80;;;;;;5079561;28;20827;-55
2024/02/29 04:52:46;;;;;;;17.77;10.63;;;7.10;98.80;;;;;;5079284;28;20449;-55
2024/02/29 04:55:14;;;;;;;16.03;10.07;;;7.10;98.80;;;;;;5079412;28;20506;-54
2024/02/29 04:57:41;;;;;;;16.80;10.60;;;7.10;98.70;;;;;;5079493;28;20455;-55
2024/02/29 05:00:10;;;;;;;16.37;10.23;;;7.00;98.70;;;;;;5079486;28;20446;-55
2024/02/29 05:02:37;;;;;;;16.10;10.13;;;7.00;98.80;;;;;;5079128;28;20464;-54
2024/02/29 05:05:06;;;;;;;17.60;10.00;;;7.00;98.80;;;;;;5079343;28;20591;-55
2024/02/29 05:07:32;;;;;;;18.17;12.43;;;7.00;98.90;;;;;;5079192;28;21000;-55
2024/02/29 05:09:59;;;;;;;16.57;11.43;;;6.90;98.90;;;;;;5079135;28;20455;-55
2024/02/29 05:12:27;;;;;;;17.80;10.00;;;6.90;99.00;;;;;;5079309;28;20486;-54
2024/02/29 05:14:54;;;;;;;17.77;11.30;;;6.90;99.10;;;;;;5079884;28;20436;-55
2024/02/29 05:17:21;;;;;;;17.90;11.40;;;6.90;99.20;;;;;;5079233;28;20535;-54
2024/02/29 05:19:48;;;;;;;16.73;11.43;;;6.90;99.30;;;;;;5079005;28;20444;-55
2024/02/29 05:22:15;;;;;;;15.17;10.50;;;6.90;99.30;;;;;;5079160;28;20837;-54
2024/02/29 05:24:43;;;;;;;20.17;12.40;;;6.90;99.40;;;;;;5079344;28;20878;-55
2024/02/29 05:27:09;;;;;;;17.83;11.00;;;6.90;99.40;;;;;;5079208;28;20491;-54
2024/02/29 05:29:37;;;;;;;14.50;10.43;;;6.80;99.40;;;;;;5075502;28;20441;-55
2024/02/29 05:32:05;;;;;;;17.03;10.53;;;6.90;99.50;;;;;;5076026;28;20559;-55
2024/02/29 05:34:31;;;;;;;15.70;10.00;;;6.80;99.50;;;;;;5076046;28;20444;-54
2024/02/29 05:36:58;;;;;;;15.17;11.47;;;6.80;99.50;;;;;;5075945;28;20437;-54
2024/02/29 05:39:25;;;;;;;13.73;9.13;;;6.80;99.60;;;;;;5076047;28;20470;-54
2024/02/29 05:41:55;;;;;;;19.03;10.80;;;6.80;99.70;;;;;;5075932;28;20463;-55
2024/02/29 05:44:22;;;;;;;16.23;10.40;;;6.80;99.70;;;;;;5075778;28;20879;-55
2024/02/29 05:46:51;;;;;;;14.73;10.77;;;6.80;99.70;;;;;;5075716;28;20484;-55
2024/02/29 05:49:17;;;;;;;12.97;8.93;;;6.80;99.70;;;;;;5075640;28;20806;-55
2024/02/29 05:51:44;;;;;;;16.30;10.30;;;6.80;99.70;;;;;;5075565;28;20451;-56
2024/02/29 05:54:11;;;;;;;17.03;10.63;;;6.80;99.70;;;;;;5075301;28;20456;-55
2024/02/29 05:56:37;;;;;;;17.33;10.50;;;6.80;99.70;;;;;;5075698;28;20441;-55
2024/02/29 05:59:04;;;;;;;16.30;10.83;;;6.80;99.80;;;;;;5075563;28;20455;-55
2024/02/29 06:01:30;;;;;;;14.97;10.17;;;6.70;99.80;;;;;;5075537;28;20202;-55
2024/02/29 06:03:58;;;;;;;14.60;10.00;;;6.70;99.80;;;;;;5075523;28;20490;-55
2024/02/29 06:06:25;;;;;;;14.90;9.70;;;6.70;99.80;;;;;;5075095;28;21009;-55
2024/02/29 06:08:52;;;;;;;15.37;9.53;;;6.70;99.90;;;;;;5075219;28;20445;-55
2024/02/29 06:11:19;;;;;;;15.93;9.83;;;6.70;99.90;;;;;;5074966;28;20520;-55
2024/02/29 06:13:46;;;;;;;14.87;10.63;;;6.70;99.90;;;;;;5075208;28;20515;-55
2024/02/29 06:16:13;;;;;;;13.00;8.83;;;6.70;99.90;;;;;;5075192;28;20449;-55
2024/02/29 06:18:40;;;;;;;14.00;9.70;;;6.70;99.90;;;;;;5074933;28;20560;-55
2024/02/29 06:21:08;;;;;;;15.03;8.53;;;6.70;99.90;;;;;;5074835;28;20935;-55
2024/02/29 06:23:36;;;;;;;12.13;9.10;;;6.70;99.90;;;;;;5074667;28;20472;-55
2024/02/29 06:26:03;;;;;;;14.03;9.20;;;6.70;99.90;;;;;;5074989;28;20483;-55
2024/02/29 06:28:29;;;;;;;14.47;9.07;;;6.60;99.90;;;;;;5074615;28;20935;-55
2024/02/29 06:30:56;;;;;;;13.77;8.67;;;6.60;99.80;;;;;;5074527;28;20931;-55
2024/02/29 06:33:24;;;;;;;13.90;9.10;;;6.60;99.90;;;;;;5074814;28;20465;-54
2024/02/29 06:35:51;;;;;;;13.90;9.80;;;6.60;99.90;;;;;;5074526;28;20455;-55
2024/02/29 06:38:19;;;;;;;14.07;9.10;;;6.60;99.90;;;;;;5074742;28;20455;-55
2024/02/29 06:40:46;;;;;;;15.73;9.10;;;6.60;99.90;;;;;;5074585;28;20437;-55
2024/02/29 06:43:13;;;;;;;11.13;8.20;;;6.60;99.90;;;;;;5075374;28;20468;-54
2024/02/29 06:45:46;;;;;;;17.30;9.53;;;6.70;99.90;;;;;;5074754;28;20483;-55
2024/02/29 06:48:13;;;;;;;17.20;10.47;;;6.70;99.90;;;;;;5074873;28;20421;-55
2024/02/29 06:50:40;;;;;;;13.63;8.73;;;6.80;99.90;;;;;;5074834;28;20437;-55
2024/02/29 06:53:07;;;;;;;15.43;9.53;;;6.80;99.90;;;;;;5074385;28;20471;-55
2024/02/29 06:55:35;;;;;;;16.37;9.47;;;6.80;99.90;;;;;;5074862;28;20532;-54
2024/02/29 06:58:03;;;;;;;13.00;9.00;;;6.90;99.90;;;;;;5074510;28;20451;-55
2024/02/29 07:00:30;;;;;;;12.60;8.73;;;6.90;99.90;;;;;;5074380;28;20445;-55
2024/02/29 07:02:57;;;;;;;13.07;9.13;;;6.90;99.90;;;;;;5074233;28;20460;-55
2024/02/29 07:05:26;;;;;;;14.17;10.23;;;7.10;99.90;;;;;;5074226;28;20437;-55
2024/02/29 07:07:54;;;;;;;12.57;8.83;;;7.10;99.90;;;;;;5074149;28;20440;-55
2024/02/29 07:10:21;;;;;;;12.57;9.03;;;7.20;99.90;;;;;;5074131;28;20498;-55
2024/02/29 07:12:49;;;;;;;14.63;8.67;;;7.30;99.90;;;;;;5074014;28;20477;-55
2024/02/29 07:15:16;;;;;;;13.50;9.77;;;7.30;99.90;;;;;;5074059;28;20472;-55
2024/02/29 07:17:43;;;;;;;13.33;9.00;;;7.40;99.90;;;;;;5074178;28;20436;-54
2024/02/29 07:20:13;;;;;;;12.70;9.00;;;7.40;99.80;;;;;;5074001;28;20440;-55
2024/02/29 07:22:40;;;;;;;13.27;9.57;;;7.50;99.70;;;;;;5073920;28;20464;-54
2024/02/29 07:25:08;;;;;;;12.30;9.77;;;7.50;99.70;;;;;;5073843;28;20440;-54
2024/02/29 07:27:36;;;;;;;13.80;10.17;;;7.50;99.80;;;;;;5073863;28;20563;-55
2024/02/29 07:30:07;;;;;;;13.60;9.50;;;7.60;99.70;;;;;;5073703;28;20451;-55
2024/02/29 07:32:34;;;;;;;13.47;9.97;;;7.50;99.70;;;;;;5073677;28;20464;-55
2024/02/29 07:35:00;;;;;;;10.87;8.50;;;7.60;99.90;;;;;;5073707;28;20455;-55
2024/02/29 07:37:28;;;;;;;14.87;9.67;;;7.70;99.80;;;;;;5073678;28;20539;-54
2024/02/29 07:39:55;;;;;;;14.73;9.00;;;7.80;99.70;;;;;;5073641;28;20451;-55
2024/02/29 07:42:21;;;;;;;14.90;9.77;;;7.80;99.70;;;;;;5073834;28;20829;-55
2024/02/29 07:44:48;;;;;;;12.60;8.90;;;7.90;99.50;;;;;;5073609;28;20452;-55
2024/02/29 07:47:16;;;;;;;13.13;9.37;;;8.00;99.40;;;;;;5073551;28;20480;-55
2024/02/29 07:49:43;;;;;;;12.60;8.37;;;8.10;99.40;;;;;;5073434;28;20447;-55
2024/02/29 07:52:10;;;;;;;13.37;9.93;;;8.10;99.30;;;;;;5072513;28;21025;-55
2024/02/29 07:54:37;;;;;;;13.03;8.70;;;8.20;99.50;;;;;;5073225;28;20488;-55
2024/02/29 07:57:04;;;;;;;13.07;8.40;;;8.20;99.30;;;;;;5073509;28;20441;-55
2024/02/29 07:59:31;;;;;;;14.23;8.97;;;8.40;99.30;;;;;;5073421;28;20471;-55
2024/02/29 08:01:58;;;;;;;14.10;9.93;;;8.40;99.20;;;;;;5073498;28;20464;-55
2024/02/29 08:04:26;;;;;;;10.50;8.63;;;8.50;99.20;;;;;;5073101;28;20478;-55
2024/02/29 08:06:53;;;;;;;13.60;8.77;;;8.50;99.20;;;;;;5073310;28;20491;-55
2024/02/29 08:09:19;;;;;;;12.13;9.43;;;8.60;99.10;;;;;;5073405;28;20448;-55
2024/02/29 08:11:46;;;;;;;10.77;8.20;;;8.60;99.10;;;;;;5073212;28;20437;-55
2024/02/29 08:14:13;;;;;;;8.97;7.67;;;8.70;99.00;;;;;;5073457;28;20444;-55
2024/02/29 08:16:40;;;;;;;9.83;8.23;;;8.70;98.70;;;;;;5073271;28;20436;-55
2024/02/29 08:19:07;;;;;;;9.47;7.83;;;8.80;98.60;;;;;;5073309;28;20445;-55
2024/02/29 08:21:36;;;;;;;11.93;8.67;;;8.80;98.80;;;;;;5073663;28;20444;-55
2024/02/29 08:24:03;;;;;;;10.23;8.30;;;8.80;98.80;;;;;;5073152;28;20455;-55
2024/02/29 08:26:30;;;;;;;12.67;8.47;;;8.80;98.80;;;;;;5073055;28;20484;-55
2024/02/29 08:28:57;;;;;;;10.97;7.70;;;8.90;98.90;;;;;;5072727;28;20468;-55
2024/02/29 08:31:24;;;;;;;12.23;8.30;;;8.90;98.70;;;;;;5073078;28;20498;-55
2024/02/29 08:33:51;;;;;;;10.23;8.37;;;9.00;98.70;;;;;;5072888;28;20465;-55
2024/02/29 08:36:18;;;;;;;11.43;8.50;;;9.00;98.70;;;;;;5073060;28;20440;-55
2024/02/29 08:38:46;;;;;;;12.07;7.60;;;9.10;98.70;;;;;;5073206;28;20448;-55
2024/02/29 08:41:13;;;;;;;13.77;8.27;;;9.10;98.50;;;;;;5072974;28;20451;-55
2024/02/29 08:43:42;;;;;;;13.60;7.57;;;9.20;98.40;;;;;;5072889;28;20461;-55
2024/02/29 08:46:09;;;;;;;11.53;7.40;;;9.20;98.40;;;;;;5072851;28;20449;-55
2024/02/29 08:48:36;;;;;;;13.47;8.23;;;9.30;98.50;;;;;;5073012;28;20441;-55
2024/02/29 08:51:03;;;;;;;12.10;8.63;;;9.30;98.10;;;;;;5072859;28;20455;-55
2024/02/29 08:53:30;;;;;;;11.83;8.20;;;9.30;98.20;;;;;;5072395;28;20472;-55
2024/02/29 08:55:58;;;;;;;10.67;8.50;;;9.40;98.30;;;;;;5072956;28;20435;-54
2024/02/29 08:58:25;;;;;;;8.53;6.80;;;9.40;98.10;;;;;;5072589;28;20451;-55
2024/02/29 09:00:52;;;;;;;8.67;7.23;;;9.50;98.30;;;;;;5072479;28;20799;-55
2024/02/29 09:03:19;;;;;;;9.70;7.30;;;9.50;98.10;;;;;;5073434;28;20829;-55
2024/02/29 09:05:46;;;;;;;10.60;6.70;;;9.60;97.90;;;;;;5076548;28;20451;-55
2024/02/29 09:08:13;;;;;;;8.83;6.50;;;9.70;98.10;;;;;;5076429;28;20494;-54
2024/02/29 09:10:40;;;;;;;9.20;7.30;;;9.90;97.80;;;;;;5076064;28;21044;-55
2024/02/29 09:13:08;;;;;;;9.90;7.30;;;10.00;97.20;;;;;;5076273;28;20807;-54
2024/02/29 09:15:37;;;;;;;9.00;7.20;;;10.00;96.90;;;;;;5076317;28;20440;-54
2024/02/29 09:18:04;;;;;;;9.17;8.07;;;10.10;96.50;;;;;;5076342;28;20445;-55
2024/02/29 09:20:31;;;;;;;11.33;7.77;;;10.10;96.30;;;;;;5076313;28;20436;-55
2024/02/29 09:22:58;;;;;;;12.67;7.77;;;10.10;96.20;;;;;;5076216;28;20476;-54
2024/02/29 09:25:25;;;;;;;12.30;7.73;;;10.10;96.40;;;;;;5075865;28;20812;-55
2024/02/29 09:27:52;;;;;;;11.60;8.27;;;10.10;96.40;;;;;;5076013;28;20491;-55
2024/02/29 09:30:20;;;;;;;9.80;7.03;;;10.10;96.30;;;;;;5076770;28;20436;-55
2024/02/29 09:32:51;;;;;;;11.00;6.33;;;10.10;96.20;;;;;;5075919;28;20472;-55
2024/02/29 09:35:19;;;;;;;7.70;6.40;;;10.10;96.20;;;;;;5075779;28;20520;-55
2024/02/29 09:37:45;;;;;;;9.20;7.00;;;10.10;96.40;;;;;;5076210;28;20439;-55
2024/02/29 09:40:12;;;;;;;8.80;7.40;;;10.10;96.40;;;;;;5075945;28;20444;-55
2024/02/29 09:42:39;;;;;;;8.23;6.53;;;10.10;96.30;;;;;;5075835;28;20460;-55
2024/02/29 09:45:11;;;;;;;8.70;6.93;;;10.10;96.10;;;;;;5075515;28;20437;-55
2024/02/29 09:47:40;;;;;;;8.47;7.07;;;10.10;96.30;;;;;;5075788;28;20496;-55
2024/02/29 09:50:09;;;;;;;9.07;7.53;;;10.20;96.40;;;;;;5075643;28;20447;-55
2024/02/29 09:52:37;;;;;;;9.80;6.33;;;10.30;96.50;;;;;;5075241;28;20827;-55
2024/02/29 09:55:06;;;;;;;8.27;6.30;;;10.40;96.10;;;;;;5075306;28;20518;-55
2024/02/29 09:57:34;;;;;;;8.47;6.33;;;10.50;96.30;;;;;;5075820;28;20832;-55
2024/02/29 10:00:02;;;;;;;9.27;6.40;;;10.50;95.80;;;;;;5076087;28;20448;-55
2024/02/29 10:02:28;;;;;;;8.90;7.03;;;10.50;96.00;;;;;;5076031;28;20464;-55
2024/02/29 10:04:57;;;;;;;8.17;7.10;;;10.60;96.10;;;;;;5075996;28;20452;-55
2024/02/29 10:07:23;;;;;;;8.67;6.77;;;10.80;96.00;;;;;;5075239;28;20488;-55
2024/02/29 10:09:50;;;;;;;9.93;7.40;;;10.90;95.50;;;;;;5075442;28;20449;-55
2024/02/29 10:12:18;;;;;;;7.80;6.53;;;11.00;95.10;;;;;;5075324;28;20486;-55
2024/02/29 10:14:46;;;;;;;9.13;7.03;;;11.00;95.00;;;;;;5074607;28;20844;-55
2024/02/29 10:17:12;;;;;;;7.80;6.20;;;11.10;95.10;;;;;;5074830;28;20958;-55
2024/02/29 10:19:39;;;;;;;8.70;6.17;;;11.20;95.40;;;;;;5075357;28;20451;-55
2024/02/29 10:22:07;;;;;;;7.40;5.90;;;11.40;95.20;;;;;;5075160;28;20467;-55
2024/02/29 10:24:34;;;;;;;6.80;5.17;;;11.50;94.40;;;;;;5075136;28;20445;-54
2024/02/29 10:27:02;;;;;;;7.30;5.80;;;11.50;94.20;;;;;;5075079;28;20478;-55
2024/02/29 10:29:30;;;;;;;7.00;5.90;;;11.60;94.30;;;;;;5075075;28;20453;-55
2024/02/29 10:31:57;;;;;;;8.63;5.30;;;11.70;93.80;;;;;;5074858;28;20467;-55
2024/02/29 10:34:24;;;;;;;7.50;5.83;;;11.70;93.60;;;;;;5074599;28;21003;-56
2024/02/29 10:36:51;;;;;;;7.73;5.40;;;11.70;93.80;;;;;;5074620;28;20946;-55
2024/02/29 10:39:19;;;;;;;7.67;5.33;;;11.80;93.50;;;;;;5074860;28;20815;-55
2024/02/29 10:41:49;;;;;;;6.00;4.97;;;12.00;93.40;;;;;;5074400;28;20947;-55
2024/02/29 10:44:21;;;;;;;5.33;4.73;;;12.20;93.10;;;;;;5074762;28;20436;-55
2024/02/29 10:46:50;;;;;;;5.20;4.40;;;12.40;92.80;;;;;;5074618;28;20443;-55
2024/02/29 10:49:23;;;;;;;6.50;4.50;;;12.60;92.00;;;;;;5074671;28;20448;-55
2024/02/29 10:51:53;;;;;;;6.77;4.60;;;12.90;91.80;;;;;;5074633;28;20432;-55
2024/02/29 10:54:27;;;;;;;5.23;4.37;;;13.00;91.10;;;;;;5074229;28;20456;-55
2024/02/29 10:56:56;;;;;;;8.30;4.27;;;13.20;90.80;;;;;;5074719;28;20449;-55
2024/02/29 10:59:24;;;;;;;3.90;3.50;;;13.20;90.50;;;;;;5074380;28;20480;-55
2024/02/29 11:01:57;;;;;;;5.13;4.63;;;13.20;90.20;;;;;;5074090;28;20973;-54
2024/02/29 11:04:25;;;;;;;3.40;3.07;;;13.30;90.30;;;;;;5074308;28;20425;-55
2024/02/29 11:06:52;;;;;;;4.60;3.83;;;13.50;90.10;;;;;;5074169;28;20454;-55
2024/02/29 11:09:23;;;;;;;4.43;3.90;;;13.60;89.60;;;;;;5074175;28;20441;-55
2024/02/29 11:12:08;;;;;;;5.77;4.73;;;13.70;89.70;;;;;;5073793;28;20436;-55
2024/02/29 11:14:36;;;;;;;7.10;3.90;;;13.80;88.30;;;;;;5074104;28;20804;-55
2024/02/29 11:17:05;;;;;;;4.63;3.53;;;13.80;87.40;;;;;;5074120;28;20815;-55
2024/02/29 11:19:32;;;;;;;5.90;4.40;;;13.90;86.90;;;;;;5073962;28;20472;-55
2024/02/29 11:22:09;;;;;;;4.77;3.90;;;13.80;87.30;;;;;;5073873;28;20461;-55
2024/02/29 11:24:39;;;;;;;4.60;3.83;;;13.90;87.20;;;;;;5073989;28;20805;-55
2024/02/29 11:27:10;;;;;;;4.53;3.37;;;13.80;86.80;;;;;;5072952;28;20507;-55
2024/02/29 11:29:37;;;;;;;7.33;3.37;;;13.70;86.90;;;;;;5073867;28;20425;-55
2024/02/29 11:32:05;;;;;;;7.07;3.60;;;13.60;87.30;;;;;;5073667;28;20846;-55
2024/02/29 11:34:31;;;;;;;5.10;3.67;;;13.60;87.50;;;;;;5073420;28;20459;-55
2024/02/29 11:36:59;;;;;;;4.90;4.07;;;13.60;88.00;;;;;;5073765;28;20788;-55
2024/02/29 11:39:26;;;;;;;4.40;3.57;;;13.50;87.50;;;;;;5073740;28;20441;-55
2024/02/29 11:42:02;;;;;;;5.20;3.53;;;13.40;87.70;;;;;;5073792;28;20448;-55
2024/02/29 11:44:29;;;;;;;4.10;3.40;;;13.40;88.30;;;;;;5073669;28;20431;-55
2024/02/29 11:46:56;;;;;;;4.00;3.60;;;13.40;89.40;;;;;;5073590;28;20443;-55
2024/02/29 11:49:25;;;;;;;5.90;3.50;;;13.50;87.60;;;;;;5073505;28;20519;-55
2024/02/29 11:51:53;;;;;;;6.70;4.13;;;13.50;87.60;;;;;;5074627;28;20536;-55
2024/02/29 11:54:20;;;;;;;5.50;3.63;;;13.40;87.30;;;;;;5073226;28;20456;-55
2024/02/29 11:56:47;;;;;;;3.70;3.37;;;13.40;88.10;;;;;;5073537;28;20447;-55
2024/02/29 11:59:16;;;;;;;7.30;4.13;;;13.30;88.20;;;;;;5073425;28;20781;-55
2024/02/29 12:01:44;;;;;;;4.63;3.80;;;13.30;87.90;;;;;;5073089;28;20927;-55
2024/02/29 12:04:11;;;;;;;4.53;3.87;;;13.30;88.60;;;;;;5073409;28;20474;-54
2024/02/29 12:06:40;;;;;;;4.77;3.47;;;13.30;88.80;;;;;;5073055;28;20520;-55
2024/02/29 12:09:08;;;;;;;3.70;3.40;;;13.40;89.30;;;;;;5073303;28;20571;-55
2024/02/29 12:11:37;;;;;;;4.03;3.30;;;13.40;88.70;;;;;;5073568;28;20444;-55
2024/02/29 12:14:06;;;;;;;5.37;3.57;;;13.40;88.70;;;;;;5073349;28;20448;-55
2024/02/29 12:16:35;;;;;;;3.60;3.10;;;13.40;88.90;;;;;;5073198;28;20440;-55
2024/02/29 12:19:02;;;;;;;3.27;2.97;;;13.50;89.20;;;;;;5073252;28;20445;-55
2024/02/29 12:21:29;;;;;;;4.57;4.07;;;13.40;88.70;;;;;;5073330;28;20440;-55
2024/02/29 12:23:56;;;;;;;3.90;3.57;;;13.50;88.60;;;;;;5072835;28;20906;-55
2024/02/29 12:26:24;;;;;;;3.70;3.00;;;13.40;88.20;;;;;;5073223;28;20542;-54
2024/02/29 12:28:51;;;;;;;3.90;3.50;;;13.30;88.70;;;;;;5072833;28;20487;-55
2024/02/29 12:31:18;;;;;;;4.63;3.40;;;13.30;89.40;;;;;;5073052;28;20459;-55
2024/02/29 12:33:47;;;;;;;6.43;3.00;;;13.20;88.90;;;;;;5073011;28;20461;-54
2024/02/29 12:36:16;;;;;;;3.70;2.93;;;13.20;88.70;;;;;;5073236;28;20441;-55
2024/02/29 12:38:44;;;;;;;5.17;3.13;;;13.20;88.90;;;;;;5074492;28;20873;-55
2024/02/29 12:41:13;;;;;;;5.10;3.70;;;13.20;89.00;;;;;;5077268;28;20456;-55
2024/02/29 12:43:46;;;;;;;5.10;3.47;;;13.20;90.00;;;;;;5077003;28;20476;-55
2024/02/29 12:46:14;;;;;;;5.80;3.70;;;13.30;89.80;;;;;;5077081;28;20594;-55
2024/02/29 12:48:41;;;;;;;4.00;3.10;;;13.30;89.50;;;;;;5076834;28;20521;-55